Terminal Aerodrome Forecast
Issued by NWS Spokane, WA

Home | Current Version | Previous Version | Text Only | Print | Product List | Glossary On
Versions: 1 2 3 4 5 6 7 8 9 10 11 12 13 14 15 16 17 18
000
FTUS46 KOTX 222339
TAFGEG
TAF
KGEG 222339Z 2300/2324 05004KT P6SM SCT050 BKN100
     FM230400 14005KT P6SM BKN080
     FM231000 14004KT P6SM OVC050
     FM232000 23006KT P6SM BKN050=

USA.gov is the U.S. government's official web portal to all federal, state and local government web resources and services.